Amami

Airport
ICAO code: 
RJKA
IATA Code: 
ASJ
Summary
ICAO Region: 
APAC
Territory: 
Location: 
Amami, Kagoshima Prefecture
Serving: 
Amami
Elevation: 
88 ft
Coordinates: 
Aerial View: 
28° 25' 52.171" N, 129° 42' 43.612" E
Airport WX: 
Tropical Revolving Storm
Metar
Observation
RJKA 050900Z 04015KT 9999 -SHRA FEW025 SCT030 BKN035 18/14 Q1023
Station
Amami Airport
Date/Time
2021-12-05 09:00:00
Wind direction
40°
Wind speed
15 kts
Lowest cloud amount
few clouds
Temperature
18°C
Dew point
14°C
Humidity
77%
QNH
1023 hPa
Weather condition
light showers rain

Amami Airport is an airport located 21.9 km east northeast Amami, a city on Amami Ōshima (Amami Island) in the Kagoshima Prefecture of Japan. It was previously named Amami Oshima Airport.

Climatology

Humid Sub-tropical climate (Köppen climate classification Cwa) - Hot humid summers and cooler winter. Significant precipitation in all seasons but drier in the winter.

Occasional Typhoons coming from South China Sea.

Runways

Designator Length Width Surface Rops
3/21 1999 46 ASP Yes/Yes
Airport map: 
Aerial View: 

SKYbrary Partners:

Safety knowledge contributed by: